Ica, Peru
Current Conditions -  °F | °C
As of 10:00 PM on Friday 19 Dec 2014 (Local Time) from SPSO Reporting Station
Overcast Overcast  
Wind Chill: 68°   Ceiling: 3000
Heat Index: 68°   Visibility: 6mi
Dew Point: 63°   Wind: 13mph
Humidity: 83%   Direction: 230°SW
Pressure: 29.94"   Gusts: NA
Location:  14.06°S, 75.75°W
Report Text: SPSO 200300Z 23011KT 9999 OVC030 20/17 Q1014 RMK PP000
Loading
Personal Weather Stations






























Interactive Weather Map New forecast layout! Learn more

10-Day Weather Forecast

Advertisements
Track Severe Weather on mobile